Time;durP1;ratioP1;P1;durP2;ratioP2;P2;SDS_P1;SDS_P2;PMS_P1;PMS_P2;Temp;Humidity;BMP_temperature;BMP_pressure;BME280_temperature;BME280_humidity;BME280_pressure;Samples;Min_cycle;Max_cycle;Signal;HPM_P1;HPM_P2
2021/06/16 00:01:34;;;;;;;;;;;;;;;18.77;73.17;100338.73;1654571;86;20097;-88
2021/06/16 00:04:00;;;;;;;;;;;;;;;18.71;73.50;100338.34;1654651;87;20121;-89
2021/06/16 00:06:26;;;;;;;;;;;;;;;18.67;73.87;100340.17;1654637;87;20460;-88
2021/06/16 00:08:52;;;;;;;;;;;;;;;18.63;73.96;100347.69;1654345;86;20171;-88
2021/06/16 00:11:18;;;;;;;;;;;;;;;18.56;73.81;100344.47;1654681;86;20105;-88
2021/06/16 00:13:44;;;;;;;;;;;;;;;18.51;73.93;100347.64;1654443;87;20129;-89
2021/06/16 00:16:10;;;;;;;;;;;;;;;18.47;73.68;100347.63;1654818;87;20124;-88
2021/06/16 00:18:35;;;;;;;;;;;;;;;18.43;74.16;100344.45;1654636;87;20105;-88
2021/06/16 00:21:01;;;;;;;;;;;;;;;18.38;74.30;100345.92;1654668;87;20420;-88
2021/06/16 00:23:27;;;;;;;;;;;;;;;18.33;74.52;100347.76;1654570;87;20121;-88
2021/06/16 00:25:53;;;;;;;;;;;;;;;18.28;74.63;100341.54;1654734;86;20128;-88
2021/06/16 00:28:19;;;;;;;;;;;;;;;18.27;74.62;100347.06;1654536;87;20204;-88
2021/06/16 00:30:44;;;;;;;;;;;;;;;18.23;75.00;100345.21;1654807;86;20157;-88
2021/06/16 00:33:10;;;;;;;;;;;;;;;18.19;74.70;100341.16;1654408;87;20174;-88
2021/06/16 00:35:36;;;;;;;;;;;;;;;18.16;75.02;100341.48;1654263;87;20135;-88
2021/06/16 00:38:02;;;;;;;;;;;;;;;18.14;75.34;100341.33;1654442;87;20143;-88
2021/06/16 00:40:29;;;;;;;;;;;;;;;18.10;75.34;100339.95;1654440;87;20187;-88
2021/06/16 00:43:00;;;;;;;;;;;;;;;18.05;75.03;100344.44;1654172;87;20142;-88
2021/06/16 00:45:24;;;;;;;;;;;;;;;18.02;75.46;100346.09;1652966;87;20237;-88
2021/06/16 00:47:55;;;;;;;;;;;;;;;17.97;76.07;100340.41;1654460;87;20121;-88
2021/06/16 00:50:17;;;;;;;;;;;;;;;17.90;76.10;100334.88;1654294;85;20431;-87
2021/06/16 00:52:43;;;;;;;;;;;;;;;17.87;75.92;100332.52;1654440;87;20170;-88
2021/06/16 00:55:09;;;;;;;;;;;;;;;17.85;75.95;100332.33;1654559;86;20169;-88
2021/06/16 00:57:35;;;;;;;;;;;;;;;17.81;76.08;100324.64;1654320;87;20135;-88
2021/06/16 01:00:12;;;;;;;;;;;;;;;17.80;75.94;100324.30;1654492;87;20449;-87
2021/06/16 01:03:06;;;;;;;;;;;;;;;17.80;75.79;100327.45;1653681;87;20174;-88
2021/06/16 01:05:38;;;;;;;;;;;;;;;17.78;75.84;100338.80;1654501;87;20460;-88
2021/06/16 01:08:05;;;;;;;;;;;;;;;17.75;76.09;100334.58;1653485;87;20187;-88
2021/06/16 01:10:35;;;;;;;;;;;;;;;17.72;76.04;100330.05;1654460;86;20417;-89
2021/06/16 01:13:22;;;;;;;;;;;;;;;17.70;75.96;100340.89;1654276;87;20563;-89
2021/06/16 01:15:57;;;;;;;;;;;;;;;17.68;76.07;100338.03;1654437;87;20143;-88
2021/06/16 01:18:24;;;;;;;;;;;;;;;17.66;76.01;100340.84;1654067;87;20166;-88
2021/06/16 01:20:52;;;;;;;;;;;;;;;17.65;76.29;100361.03;1654331;86;20167;-88
2021/06/16 01:23:39;;;;;;;;;;;;;;;17.62;76.43;100364.01;1636725;87;20121;-88
2021/06/16 01:26:19;;;;;;;;;;;;;;;17.56;76.51;100360.13;1628123;87;20142;-91
2021/06/16 01:28:45;;;;;;;;;;;;;;;17.53;77.20;100363.09;1639216;87;20154;-89
2021/06/16 01:31:13;;;;;;;;;;;;;;;17.48;77.73;100360.08;1654365;87;20154;-89
2021/06/16 01:33:39;;;;;;;;;;;;;;;17.42;77.95;100353.52;1654240;86;20167;-90
2021/06/16 01:36:06;;;;;;;;;;;;;;;17.40;78.18;100353.33;1654369;87;20162;-89
2021/06/16 01:38:33;;;;;;;;;;;;;;;17.37;78.18;100346.97;1638596;87;20181;-89
2021/06/16 01:41:00;;;;;;;;;;;;;;;17.33;78.21;100344.61;1654735;87;20155;-89
2021/06/16 01:43:26;;;;;;;;;;;;;;;17.32;78.03;100344.27;1654747;86;20113;-88
2021/06/16 01:45:52;;;;;;;;;;;;;;;17.31;78.47;100348.45;1654932;86;20129;-89
2021/06/16 01:48:19;;;;;;;;;;;;;;;17.28;78.28;100353.58;1654615;87;20134;-89
2021/06/16 01:50:47;;;;;;;;;;;;;;;17.28;77.96;100353.58;1654778;87;20141;-89
2021/06/16 01:53:14;;;;;;;;;;;;;;;17.28;78.56;100355.42;1654683;86;20138;-88
2021/06/16 01:55:40;;;;;;;;;;;;;;;17.27;78.49;100361.22;1654898;86;20129;-88
2021/06/16 01:58:08;;;;;;;;;;;;;;;17.27;78.86;100360.39;1654766;87;20565;-88
2021/06/16 02:00:38;;;;;;;;;;;;;;;17.26;79.07;100355.55;1654675;87;20168;-88
2021/06/16 02:03:05;;;;;;;;;;;;;;;17.25;79.08;100358.39;1654550;87;20458;-89
2021/06/16 02:05:31;;;;;;;;;;;;;;;17.24;79.26;100353.56;1654727;87;20128;-89
2021/06/16 02:08:00;;;;;;;;;;;;;;;17.24;79.42;100356.22;1654690;87;20220;-88
2021/06/16 02:10:30;;;;;;;;;;;;;;;17.22;79.76;100353.36;1654473;87;20611;-89
2021/06/16 02:12:58;;;;;;;;;;;;;;;17.20;79.75;100353.50;1654393;87;20205;-89
2021/06/16 02:15:28;;;;;;;;;;;;;;;17.19;79.31;100354.50;1654539;87;20101;-89
2021/06/16 02:17:55;;;;;;;;;;;;;;;17.21;79.60;100343.66;1654745;87;20112;-89
2021/06/16 02:20:21;;;;;;;;;;;;;;;17.22;79.65;100345.36;1654809;84;20157;-89
2021/06/16 02:22:48;;;;;;;;;;;;;;;17.22;79.58;100350.20;1654602;87;20157;-88
2021/06/16 02:25:16;;;;;;;;;;;;;;;17.23;80.06;100350.53;1654756;86;20169;-89
2021/06/16 02:27:42;;;;;;;;;;;;;;;17.22;79.52;100346.20;1654578;86;20174;-89
2021/06/16 02:30:09;;;;;;;;;;;;;;;17.24;79.58;100356.69;1654651;86;20216;-88
2021/06/16 02:32:36;;;;;;;;;;;;;;;17.23;79.35;100359.86;1654276;87;20598;-88
2021/06/16 02:35:04;;;;;;;;;;;;;;;17.23;79.56;100363.86;1654275;86;20166;-88
2021/06/16 02:37:31;;;;;;;;;;;;;;;17.23;79.66;100363.03;1653293;87;20403;-88
2021/06/16 02:40:00;;;;;;;;;;;;;;;17.22;79.90;100360.03;1654436;86;20145;-88
2021/06/16 02:42:26;;;;;;;;;;;;;;;17.21;79.87;100367.19;1654454;86;20137;-88
2021/06/16 02:44:52;;;;;;;;;;;;;;;17.20;80.06;100362.83;1654702;87;20156;-88
2021/06/16 02:47:18;;;;;;;;;;;;;;;17.18;79.79;100362.66;1654681;87;20391;-89
2021/06/16 02:49:47;;;;;;;;;;;;;;;17.15;80.26;100361.14;1654708;86;20141;-89
2021/06/16 02:52:16;;;;;;;;;;;;;;;17.12;80.33;100368.11;1654559;86;20158;-88
2021/06/16 02:54:45;;;;;;;;;;;;;;;17.09;79.78;100368.41;1654693;86;20417;-89
2021/06/16 02:57:13;;;;;;;;;;;;;;;17.08;80.43;100368.08;1654246;86;20162;-88
2021/06/16 02:59:40;;;;;;;;;;;;;;;17.06;79.82;100368.70;1654321;86;20223;-88
2021/06/16 03:02:06;;;;;;;;;;;;;;;17.04;80.04;100367.52;1654417;87;20118;-88
2021/06/16 03:04:32;;;;;;;;;;;;;;;17.02;80.17;100366.02;1654769;87;20138;-88
2021/06/16 03:06:59;;;;;;;;;;;;;;;17.02;80.22;100374.01;1654491;87;20496;-88
2021/06/16 03:09:25;;;;;;;;;;;;;;;17.01;79.99;100374.51;1654314;87;20210;-88
2021/06/16 03:11:51;;;;;;;;;;;;;;;17.01;80.34;100378.98;1654418;87;20430;-88
2021/06/16 03:14:23;;;;;;;;;;;;;;;17.01;80.61;100381.64;1654661;87;20138;-88
2021/06/16 03:16:50;;;;;;;;;;;;;;;16.98;80.57;100383.27;1654195;87;20207;-88
2021/06/16 03:19:16;;;;;;;;;;;;;;;16.96;80.54;100374.11;1654315;87;20151;-88
2021/06/16 03:21:43;;;;;;;;;;;;;;;16.95;80.42;100379.61;1631471;87;20452;-88
2021/06/16 03:24:09;;;;;;;;;;;;;;;16.93;80.65;100373.58;1654408;87;20163;-88
2021/06/16 03:26:35;;;;;;;;;;;;;;;16.92;80.56;100378.08;1654404;87;20183;-88
2021/06/16 03:29:01;;;;;;;;;;;;;;;16.92;80.69;100386.07;1654421;86;20188;-87
2021/06/16 03:31:27;;;;;;;;;;;;;;;16.91;80.82;100384.88;1654388;86;20154;-87
2021/06/16 03:33:53;;;;;;;;;;;;;;;16.90;80.81;100377.38;1654151;87;20199;-88
2021/06/16 03:36:19;;;;;;;;;;;;;;;16.92;80.96;100381.24;1654380;87;20163;-88
2021/06/16 03:38:45;;;;;;;;;;;;;;;16.93;81.16;100384.23;1654424;86;20137;-88
2021/06/16 03:41:12;;;;;;;;;;;;;;;16.95;81.41;100388.44;1654673;87;20165;-87
2021/06/16 03:43:39;;;;;;;;;;;;;;;16.95;81.96;100382.27;1653513;87;20197;-87
2021/06/16 03:46:06;;;;;;;;;;;;;;;16.97;81.76;100386.94;1652778;87;20125;-88
2021/06/16 03:48:33;;;;;;;;;;;;;;;16.99;81.91;100384.47;1653259;87;20109;-87
2021/06/16 03:50:59;;;;;;;;;;;;;;;17.01;81.69;100381.17;1654530;87;20520;-87
2021/06/16 03:53:26;;;;;;;;;;;;;;;17.05;81.69;100381.70;1654453;87;20121;-88
2021/06/16 03:55:52;;;;;;;;;;;;;;;17.07;81.62;100385.87;1654509;87;20103;-86
2021/06/16 03:58:18;;;;;;;;;;;;;;;17.09;81.71;100381.73;1654429;87;20109;-86
2021/06/16 04:00:44;;;;;;;;;;;;;;;17.11;81.49;100389.10;1654824;86;20130;-87
2021/06/16 04:03:11;;;;;;;;;;;;;;;17.13;81.35;100388.94;1654511;86;20136;-87
2021/06/16 04:05:37;;;;;;;;;;;;;;;17.15;81.62;100388.30;1654636;86;20137;-87
2021/06/16 04:08:05;;;;;;;;;;;;;;;17.15;81.38;100388.30;1654467;86;20995;-87
2021/06/16 04:10:31;;;;;;;;;;;;;;;17.15;81.41;100390.97;1654512;87;20209;-89
2021/06/16 04:12:57;;;;;;;;;;;;;;;17.16;81.41;100392.13;1654357;86;20143;-87
2021/06/16 04:15:23;;;;;;;;;;;;;;;17.16;81.19;100393.46;1654259;87;20146;-88
2021/06/16 04:17:49;;;;;;;;;;;;;;;17.17;81.18;100397.80;1654096;87;20497;-87
2021/06/16 04:20:17;;;;;;;;;;;;;;;17.17;81.32;100396.46;1654717;85;20174;-87
2021/06/16 04:22:43;;;;;;;;;;;;;;;17.16;81.13;100397.46;1654739;86;20127;-87
2021/06/16 04:25:10;;;;;;;;;;;;;;;17.18;81.32;100397.33;1654385;86;20164;-87
2021/06/16 04:27:36;;;;;;;;;;;;;;;17.17;81.22;100393.80;1654544;87;20166;-87
2021/06/16 04:30:07;;;;;;;;;;;;;;;17.19;81.20;100398.99;1654702;86;20118;-86
2021/06/16 04:32:33;;;;;;;;;;;;;;;17.20;81.33;100402.83;1654251;86;20227;-86
2021/06/16 04:34:59;;;;;;;;;;;;;;;17.20;81.24;100402.83;1654819;86;20113;-87
2021/06/16 04:37:25;;;;;;;;;;;;;;;17.20;81.09;100397.99;1654407;87;20554;-86
2021/06/16 04:39:51;;;;;;;;;;;;;;;17.20;81.24;100401.99;1654810;87;20153;-88
2021/06/16 04:42:16;;;;;;;;;;;;;;;17.19;81.06;100406.49;1649109;87;20113;-86
2021/06/16 04:44:42;;;;;;;;;;;;;;;17.20;81.32;100403.33;1654633;86;20093;-85
2021/06/16 04:47:08;;;;;;;;;;;;;;;17.21;81.37;100408.52;1654453;87;20155;-86
2021/06/16 04:49:34;;;;;;;;;;;;;;;17.23;81.33;100409.69;1654384;86;20444;-87
2021/06/16 04:52:00;;;;;;;;;;;;;;;17.25;81.29;100408.55;1661133;85;20141;-86
2021/06/16 04:54:26;;;;;;;;;;;;;;;17.26;81.16;100403.55;1653707;85;20141;-88
2021/06/16 04:56:52;;;;;;;;;;;;;;;17.28;81.31;100416.25;1653303;86;20145;-87
2021/06/16 04:59:17;;;;;;;;;;;;;;;17.31;81.21;100410.62;1653386;86;20509;-87
2021/06/16 05:01:43;;;;;;;;;;;;;;;17.35;81.38;100416.48;1653522;85;20093;-87
2021/06/16 05:04:09;;;;;;;;;;;;;;;17.38;81.33;100415.34;1654916;85;20147;-87
2021/06/16 05:06:35;;;;;;;;;;;;;;;17.41;81.18;100423.87;1653705;85;20126;-87
2021/06/16 05:09:01;;;;;;;;;;;;;;;17.44;81.18;100424.91;1652388;87;20133;-87
2021/06/16 05:11:27;;;;;;;;;;;;;;;17.49;81.26;100427.09;1655944;85;20126;-87
2021/06/16 05:13:53;;;;;;;;;;;;;;;17.50;81.08;100425.59;1663068;85;20467;-86
2021/06/16 05:16:19;;;;;;;;;;;;;;;17.54;81.17;100433.66;1660267;85;20139;-86
2021/06/16 05:18:47;;;;;;;;;;;;;;;17.58;80.92;100428.34;1664120;85;20137;-86
2021/06/16 05:21:12;;;;;;;;;;;;;;;17.60;81.06;100430.84;1654123;86;20141;-86
2021/06/16 05:23:38;;;;;;;;;;;;;;;17.65;80.97;100425.90;1651906;85;20133;-87
2021/06/16 05:26:05;;;;;;;;;;;;;;;17.69;80.92;100429.92;1654167;84;20389;-87
2021/06/16 05:28:30;;;;;;;;;;;;;;;17.73;80.85;100429.95;1637991;87;20136;-87
2021/06/16 05:30:56;;;;;;;;;;;;;;;17.78;80.90;100433.54;1659684;85;20134;-86
2021/06/16 05:33:22;;;;;;;;;;;;;;;17.83;80.75;100434.39;1657738;84;20137;-88
2021/06/16 05:35:48;;;;;;;;;;;;;;;17.86;80.71;100425.58;1658872;85;20192;-87
2021/06/16 05:38:13;;;;;;;;;;;;;;;17.91;80.74;100427.80;1652510;87;20113;-87
2021/06/16 05:40:39;;;;;;;;;;;;;;;17.97;80.86;100423.17;1652405;85;20105;-86
2021/06/16 05:43:05;;;;;;;;;;;;;;;18.02;80.83;100429.70;1660833;85;20390;-87
2021/06/16 05:45:31;;;;;;;;;;;;;;;18.08;80.65;100431.41;1666294;85;20155;-86
2021/06/16 05:47:56;;;;;;;;;;;;;;;18.12;80.64;100435.43;1664616;85;20133;-86
2021/06/16 05:50:23;;;;;;;;;;;;;;;18.16;80.67;100436.78;1668952;84;20132;-87
2021/06/16 05:52:49;;;;;;;;;;;;;;;18.19;80.61;100432.47;1664605;85;20174;-87
2021/06/16 05:55:15;;;;;;;;;;;;;;;18.23;80.40;100428.51;1672706;85;20163;-87
2021/06/16 05:57:41;;;;;;;;;;;;;;;18.25;80.29;100425.99;1663715;85;20136;-87
2021/06/16 06:00:09;;;;;;;;;;;;;;;18.30;80.69;100424.20;1626623;87;20131;-88
2021/06/16 06:02:36;;;;;;;;;;;;;;;18.35;80.92;100425.88;1626776;88;20155;-86
2021/06/16 06:05:01;;;;;;;;;;;;;;;18.42;80.58;100431.42;1626525;88;20444;-87
2021/06/16 06:07:27;;;;;;;;;;;;;;;18.46;80.67;100434.97;1638081;87;20133;-87
2021/06/16 06:09:53;;;;;;;;;;;;;;;18.53;80.95;100436.50;1630486;87;20127;-87
2021/06/16 06:12:18;;;;;;;;;;;;;;;18.60;80.63;100436.19;1626501;88;20425;-88
2021/06/16 06:14:44;;;;;;;;;;;;;;;18.67;80.77;100442.56;1626849;87;20204;-86
2021/06/16 06:17:10;;;;;;;;;;;;;;;18.73;80.47;100438.45;1638754;87;20137;-87
2021/06/16 06:19:36;;;;;;;;;;;;;;;18.80;80.46;100439.98;1627228;87;20273;-86
2021/06/16 06:22:02;;;;;;;;;;;;;;;18.85;80.55;100441.14;1626389;88;20548;-87
2021/06/16 06:24:27;;;;;;;;;;;;;;;18.89;80.45;100449.20;1626781;87;20204;-88
2021/06/16 06:26:53;;;;;;;;;;;;;;;18.96;80.14;100450.22;1630448;87;20457;-86
2021/06/16 06:29:19;;;;;;;;;;;;;;;19.02;80.19;100450.08;1634253;87;20142;-87
2021/06/16 06:31:45;;;;;;;;;;;;;;;19.07;80.42;100448.23;1626613;87;20490;-87
2021/06/16 06:34:10;;;;;;;;;;;;;;;19.14;80.62;100449.25;1626333;88;20132;-87
2021/06/16 06:36:36;;;;;;;;;;;;;;;19.21;80.39;100445.75;1634544;87;20134;-86
2021/06/16 06:39:03;;;;;;;;;;;;;;;19.29;80.22;100451.63;1634372;87;20163;-88
2021/06/16 06:41:29;;;;;;;;;;;;;;;19.35;80.30;100452.31;1626447;88;20121;-87
2021/06/16 06:43:54;;;;;;;;;;;;;;;19.41;80.40;100447.64;1626591;87;20144;-88
2021/06/16 06:46:21;;;;;;;;;;;;;;;19.49;80.21;100453.50;1634089;87;20138;-87
2021/06/16 06:48:47;;;;;;;;;;;;;;;19.54;79.74;100452.98;1626827;87;20115;-87
2021/06/16 06:51:13;;;;;;;;;;;;;;;19.56;79.57;100455.84;1626506;88;20100;-88
2021/06/16 06:53:39;;;;;;;;;;;;;;;19.59;79.62;100456.84;1646492;87;20140;-88
2021/06/16 06:56:05;;;;;;;;;;;;;;;19.63;79.58;100456.88;1642737;86;20107;-87
2021/06/16 06:58:31;;;;;;;;;;;;;;;19.67;79.46;100457.37;1653014;86;20133;-86
2021/06/16 07:00:56;;;;;;;;;;;;;;;19.73;79.51;100455.37;1654855;86;20141;-87
2021/06/16 07:03:22;;;;;;;;;;;;;;;19.75;78.95;100451.20;1654208;87;20141;-86
2021/06/16 07:05:48;;;;;;;;;;;;;;;19.81;79.51;100452.70;1654687;86;20144;-87
2021/06/16 07:08:14;;;;;;;;;;;;;;;19.88;79.74;100456.88;1654472;87;20157;-87
2021/06/16 07:10:40;;;;;;;;;;;;;;;19.96;79.33;100447.48;1646309;86;20147;-86
2021/06/16 07:13:05;;;;;;;;;;;;;;;20.03;79.30;100446.30;1626704;88;20422;-87
2021/06/16 07:15:32;;;;;;;;;;;;;;;20.10;79.23;100451.31;1626343;88;20171;-87
2021/06/16 07:17:58;;;;;;;;;;;;;;;20.16;79.02;100446.61;1626610;87;20402;-89
2021/06/16 07:20:25;;;;;;;;;;;;;;;20.21;78.91;100448.29;1647644;87;20133;-87
2021/06/16 07:22:51;;;;;;;;;;;;;;;20.29;78.96;100448.25;1654433;86;20577;-87
2021/06/16 07:25:18;;;;;;;;;;;;;;;20.39;79.48;100453.42;1653225;86;20101;-88
2021/06/16 07:27:45;;;;;;;;;;;;;;;20.48;78.89;100451.56;1634382;87;20143;-88
2021/06/16 07:30:12;;;;;;;;;;;;;;;20.55;78.83;100453.91;1626816;87;20146;-89
2021/06/16 07:32:39;;;;;;;;;;;;;;;20.60;78.55;100451.05;1630356;87;20135;-87
2021/06/16 07:35:06;;;;;;;;;;;;;;;20.66;78.65;100449.50;1631382;87;20413;-88
2021/06/16 07:37:32;;;;;;;;;;;;;;;20.76;78.58;100447.95;1662171;85;20168;-88
2021/06/16 07:39:58;;;;;;;;;;;;;;;20.85;78.38;100450.93;1637362;86;20115;-87
2021/06/16 07:42:24;;;;;;;;;;;;;;;20.94;78.66;100449.05;1626567;88;20108;-88
2021/06/16 07:44:51;;;;;;;;;;;;;;;21.04;78.32;100445.64;1626549;88;20160;-87
2021/06/16 07:47:17;;;;;;;;;;;;;;;21.14;78.23;100444.08;1664948;85;20130;-88
2021/06/16 07:49:43;;;;;;;;;;;;;;;21.25;78.06;100443.66;1682049;85;20136;-87
2021/06/16 07:52:09;;;;;;;;;;;;;;;21.35;78.35;100442.95;1681264;84;20119;-86
2021/06/16 07:54:35;;;;;;;;;;;;;;;21.44;77.71;100438.36;1657385;85;20101;-87
2021/06/16 07:57:01;;;;;;;;;;;;;;;21.48;76.75;100450.41;1645382;86;20156;-86
2021/06/16 07:59:26;;;;;;;;;;;;;;;21.51;76.73;100450.87;1626905;88;20538;-86
2021/06/16 08:01:52;;;;;;;;;;;;;;;21.52;77.19;100452.58;1616061;85;20438;-87
2021/06/16 08:04:22;;;;;;;;;;;;;;;21.58;77.23;100456.37;1668223;84;20131;-88
2021/06/16 08:06:46;;;;;;;;;;;;;;;21.61;76.67;100458.69;1669181;85;20105;-86
2021/06/16 08:09:11;;;;;;;;;;;;;;;21.61;76.63;100458.69;1669315;84;20131;-87
2021/06/16 08:11:37;;;;;;;;;;;;;;;21.62;76.29;100460.39;1667860;85;20136;-86
2021/06/16 08:14:03;;;;;;;;;;;;;;;21.63;76.16;100459.36;1678082;85;20127;-87
2021/06/16 08:16:28;;;;;;;;;;;;;;;21.67;76.74;100457.15;1682003;85;20434;-87
2021/06/16 08:18:54;;;;;;;;;;;;;;;21.75;76.40;100461.09;1682323;85;20123;-87
2021/06/16 08:21:20;;;;;;;;;;;;;;;21.81;76.93;100460.37;1681768;84;20099;-86
2021/06/16 08:23:47;;;;;;;;;;;;;;;21.90;76.31;100455.77;1670028;84;20173;-86
2021/06/16 08:26:13;;;;;;;;;;;;;;;21.99;76.08;100460.89;1661829;85;20130;-87
2021/06/16 08:28:39;;;;;;;;;;;;;;;22.09;75.83;100460.63;1671355;85;20183;-86
2021/06/16 08:31:05;;;;;;;;;;;;;;;22.13;75.79;100455.20;1667602;84;20499;-87
2021/06/16 08:33:31;;;;;;;;;;;;;;;22.18;75.83;100459.56;1675284;84;20122;-89
2021/06/16 08:35:57;;;;;;;;;;;;;;;22.28;75.60;100455.75;1667523;85;20105;-88
2021/06/16 08:38:23;;;;;;;;;;;;;;;22.39;75.61;100458.00;1666165;85;20145;-87
2021/06/16 08:40:49;;;;;;;;;;;;;;;22.50;75.18;100454.84;1669023;84;20449;-87
2021/06/16 08:43:15;;;;;;;;;;;;;;;22.59;74.79;100455.58;1668755;85;20162;-88
2021/06/16 08:45:42;;;;;;;;;;;;;;;22.65;74.68;100452.16;1655145;85;20129;-88
2021/06/16 08:48:08;;;;;;;;;;;;;;;22.70;74.72;100449.23;1668463;85;20461;-87
2021/06/16 08:50:35;;;;;;;;;;;;;;;22.73;74.69;100445.31;1668676;85;20136;-86
2021/06/16 08:53:00;;;;;;;;;;;;;;;22.82;74.70;100443.36;1666755;85;20134;-87
2021/06/16 08:55:26;;;;;;;;;;;;;;;22.90;73.80;100449.48;1668375;84;20134;-85
2021/06/16 08:57:52;;;;;;;;;;;;;;;22.93;73.43;100445.58;1661802;85;20399;-88
2021/06/16 09:00:19;;;;;;;;;;;;;;;22.94;73.53;100454.83;1665828;85;20152;-87
2021/06/16 09:02:45;;;;;;;;;;;;;;;22.99;73.47;100448.03;1654210;86;20113;-87
2021/06/16 09:05:12;;;;;;;;;;;;;;;23.07;73.71;100451.46;1658126;85;20136;-87
2021/06/16 09:07:40;;;;;;;;;;;;;;;23.17;72.98;100443.08;1665317;85;20120;-85
2021/06/16 09:10:09;;;;;;;;;;;;;;;23.20;72.88;100445.39;1654884;86;20121;-87
2021/06/16 09:12:39;;;;;;;;;;;;;;;23.25;73.01;100444.29;1656409;85;20125;-86
2021/06/16 09:15:11;;;;;;;;;;;;;;;23.32;73.01;100443.01;1665767;85;20172;-85
2021/06/16 09:17:37;;;;;;;;;;;;;;;23.37;71.87;100440.08;1646218;87;20446;-87
2021/06/16 09:20:04;;;;;;;;;;;;;;;23.40;72.73;100451.80;1654374;86;20106;-88
2021/06/16 09:22:32;;;;;;;;;;;;;;;23.48;71.97;100444.10;1654260;86;20141;-88
2021/06/16 09:25:02;;;;;;;;;;;;;;;23.58;72.06;100450.52;1662365;85;20105;-88
2021/06/16 09:27:39;;;;;;;;;;;;;;;23.65;70.70;100449.53;1654231;86;20165;-88
2021/06/16 09:30:24;;;;;;;;;;;;;;;23.72;70.90;100446.10;1654633;86;20121;-87
2021/06/16 09:32:57;;;;;;;;;;;;;;;23.84;72.11;100439.17;1653517;87;20129;-86
2021/06/16 09:35:27;;;;;;;;;;;;;;;23.98;71.78;100442.27;1658427;85;20122;-87
2021/06/16 09:37:54;;;;;;;;;;;;;;;24.02;70.48;100444.91;1674480;85;20155;-87
2021/06/16 09:40:44;;;;;;;;;;;;;;;24.05;70.15;100446.36;1682086;85;20158;-87
2021/06/16 09:43:16;;;;;;;;;;;;;;;24.08;70.38;100444.63;1677585;85;20112;-87
2021/06/16 09:45:44;;;;;;;;;;;;;;;24.14;69.83;100445.19;1655820;85;20161;-86
2021/06/16 09:48:21;;;;;;;;;;;;;;;24.23;70.52;100445.36;1654349;86;20164;-87
2021/06/16 09:50:48;;;;;;;;;;;;;;;24.29;70.09;100443.74;1662077;85;20154;-86
2021/06/16 09:53:14;;;;;;;;;;;;;;;24.37;69.82;100444.09;1681886;85;20127;-87
2021/06/16 09:55:40;;;;;;;;;;;;;;;24.43;68.87;100444.68;1681652;84;20170;-87
2021/06/16 09:58:09;;;;;;;;;;;;;;;24.48;68.76;100431.41;1660695;85;20467;-86
2021/06/16 10:00:39;;;;;;;;;;;;;;;24.53;68.89;100435.70;1654503;86;20392;-87
2021/06/16 10:03:24;;;;;;;;;;;;;;;24.64;68.65;100439.17;1654490;85;20117;-87
2021/06/16 10:06:11;;;;;;;;;;;;;;;24.76;68.31;100435.39;1646690;85;20299;-88
2021/06/16 10:08:44;;;;;;;;;;;;;;;24.84;67.67;100430.33;1645879;86;20132;-87
2021/06/16 10:11:15;;;;;;;;;;;;;;;24.93;67.31;100438.56;1626987;87;20148;-86
2021/06/16 10:13:42;;;;;;;;;;;;;;;24.99;66.79;100435.89;1625590;88;20442;-86
2021/06/16 10:16:08;;;;;;;;;;;;;;;25.03;66.40;100437.14;1633623;87;20417;-88
2021/06/16 10:18:39;;;;;;;;;;;;;;;25.09;66.54;100431.45;1638733;86;20112;-86
2021/06/16 10:21:02;;;;;;;;;;;;;;;25.14;65.80;100429.02;1640993;86;20140;-87
2021/06/16 10:23:27;;;;;;;;;;;;;;;25.18;66.26;100428.91;1640887;87;20139;-90
2021/06/16 10:25:59;;;;;;;;;;;;;;;25.20;66.28;100425.47;1638966;86;20143;-86
2021/06/16 10:28:29;;;;;;;;;;;;;;;25.25;64.83;100427.58;1618991;86;20168;-89
2021/06/16 10:30:55;;;;;;;;;;;;;;;25.21;65.82;100427.16;1641674;87;20145;-87
2021/06/16 10:33:30;;;;;;;;;;;;;;;25.20;65.65;100421.95;1639942;87;20115;-87
2021/06/16 10:36:09;;;;;;;;;;;;;;;25.17;64.95;100419.66;1638945;86;20147;-88
2021/06/16 10:38:35;;;;;;;;;;;;;;;25.14;65.14;100423.62;1654469;86;20443;-87
2021/06/16 10:41:01;;;;;;;;;;;;;;;25.16;64.90;100424.75;1654687;86;20158;-86
2021/06/16 10:43:32;;;;;;;;;;;;;;;25.17;65.14;100427.26;1654437;87;20165;-87
2021/06/16 10:46:05;;;;;;;;;;;;;;;25.24;65.09;100425.92;1654736;86;20459;-87
2021/06/16 10:48:54;;;;;;;;;;;;;;;25.35;64.55;100425.30;1647815;86;20138;-88
2021/06/16 10:51:27;;;;;;;;;;;;;;;25.43;65.14;100423.74;1642522;87;20435;-85
2021/06/16 10:54:22;;;;;;;;;;;;;;;25.54;66.02;100429.08;1625374;87;20139;-86
2021/06/16 10:57:12;;;;;;;;;;;;;;;25.64;64.66;100426.78;1652727;86;20145;-84
2021/06/16 10:59:50;;;;;;;;;;;;;;;25.78;64.69;100421.38;1651609;87;20137;-86
2021/06/16 11:02:19;;;;;;;;;;;;;;;25.85;63.50;100424.94;1652295;85;20136;-87
2021/06/16 11:04:45;;;;;;;;;;;;;;;25.91;63.74;100426.81;1641167;87;20487;-85
2021/06/16 11:07:33;;;;;;;;;;;;;;;26.00;63.42;100420.67;1654469;86;20096;-85
2021/06/16 11:10:00;;;;;;;;;;;;;;;26.06;63.25;100416.61;1654823;86;20407;-86
2021/06/16 11:12:34;;;;;;;;;;;;;;;26.16;63.34;100420.23;1654142;87;20140;-85
2021/06/16 11:15:06;;;;;;;;;;;;;;;26.24;62.98;100420.52;1641273;87;20149;-85
2021/06/16 11:17:38;;;;;;;;;;;;;;;26.26;62.08;100413.00;1654219;86;20132;-86
2021/06/16 11:20:10;;;;;;;;;;;;;;;26.29;62.14;100414.79;1654723;86;20133;-85
2021/06/16 11:22:42;;;;;;;;;;;;;;;26.35;61.15;100411.20;1646524;87;20151;-85
2021/06/16 11:25:15;;;;;;;;;;;;;;;26.40;61.67;100410.59;1645787;87;20125;-86
2021/06/16 11:27:56;;;;;;;;;;;;;;;26.43;60.39;100418.28;1638888;86;20144;-86
2021/06/16 11:30:51;;;;;;;;;;;;;;;26.34;61.01;100412.79;1641837;86;20415;-86
2021/06/16 11:33:25;;;;;;;;;;;;;;;26.24;60.68;100407.82;1639060;87;20120;-85
2021/06/16 11:36:04;;;;;;;;;;;;;;;26.28;60.67;100405.52;1626287;87;20149;-87
2021/06/16 11:38:36;;;;;;;;;;;;;;;26.34;59.96;100410.09;1625036;88;20131;-88
2021/06/16 11:41:20;;;;;;;;;;;;;;;26.40;59.89;100406.53;1626547;88;20474;-87
2021/06/16 11:44:01;;;;;;;;;;;;;;;26.47;60.16;100396.52;1626356;87;20135;-87
2021/06/16 11:46:36;;;;;;;;;;;;;;;26.58;59.98;100398.57;1613471;88;20191;-86
2021/06/16 11:49:29;;;;;;;;;;;;;;;26.57;59.28;100395.56;1625069;88;20127;-86
2021/06/16 11:51:58;;;;;;;;;;;;;;;26.52;58.97;100398.59;1624901;88;20140;-87
2021/06/16 11:54:27;;;;;;;;;;;;;;;26.50;59.09;100396.12;1626542;87;20119;-86
2021/06/16 11:57:02;;;;;;;;;;;;;;;26.43;59.05;100392.58;1633796;87;20149;-86
2021/06/16 11:59:44;;;;;;;;;;;;;;;26.41;59.06;100396.02;1654111;86;20161;-87
2021/06/16 12:02:19;;;;;;;;;;;;;;;26.43;59.68;100385.29;1654582;86;20136;-87
2021/06/16 12:04:53;;;;;;;;;;;;;;;26.53;58.36;100385.40;1640676;87;20458;-87
2021/06/16 12:07:47;;;;;;;;;;;;;;;26.60;59.45;100383.48;1654575;86;20137;-87
2021/06/16 12:10:17;;;;;;;;;;;;;;;26.66;58.67;100378.05;1654361;86;20140;-86
2021/06/16 12:12:54;;;;;;;;;;;;;;;26.73;58.08;100378.01;1653675;86;20177;-86
2021/06/16 12:15:25;;;;;;;;;;;;;;;26.78;59.71;100370.58;1654560;86;20136;-88
2021/06/16 12:18:03;;;;;;;;;;;;;;;26.88;58.13;100362.81;1654239;85;20109;-88
2021/06/16 12:20:31;;;;;;;;;;;;;;;26.98;58.35;100358.28;1654511;86;20145;-86
2021/06/16 12:22:58;;;;;;;;;;;;;;;27.01;56.57;100358.67;1654069;87;20137;-86
2021/06/16 12:25:30;;;;;;;;;;;;;;;26.92;57.10;100353.23;1651816;87;20117;-87
2021/06/16 12:27:56;;;;;;;;;;;;;;;26.86;57.05;100350.87;1652311;87;20166;-87
2021/06/16 12:30:31;;;;;;;;;;;;;;;26.79;57.77;100345.20;1652323;87;20463;-87
2021/06/16 12:33:13;;;;;;;;;;;;;;;26.84;58.70;100348.89;1653089;86;20161;-87
2021/06/16 12:35:43;;;;;;;;;;;;;;;26.92;58.04;100348.32;1653429;87;20161;-87
2021/06/16 12:38:10;;;;;;;;;;;;;;;26.99;57.43;100339.13;1641863;87;20167;-87
2021/06/16 12:40:40;;;;;;;;;;;;;;;27.06;56.21;100335.02;1645416;86;20160;-87
2021/06/16 12:43:08;;;;;;;;;;;;;;;27.04;56.43;100335.75;1653531;86;20303;-86